Terminal Aerodrome Forecast
Issued by NWS

Current Version | Previous Version | Text Only | Print | Product List | Glossary On
Versions: 1 2 3 4 5 6 7 8 9 10 11 12 13 14 15 16 17 18 19 20
000
FTUS43 KGRR 022325
TAFLAN
TAF
KLAN 022325Z 0300/0324 27006KT P6SM SKC
     FM030900 00000KT 5SM BR BKN050
     FM031500 15005KT P6SM VCTS BKN050CB=

USA.gov is the U.S. government's official web portal to all federal, state and local government web resources and services.